sensor_id;sensor_type;location;lat;lon;timestamp;P1;durP1;ratioP1;P2;durP2;ratioP2
39264;SDS011;42646;51.910;7.724;2022-11-13T00:01:39;17.77;;;11.93;;
39264;SDS011;42646;51.910;7.724;2022-11-13T00:04:26;14.75;;;11.32;;
39264;SDS011;42646;51.910;7.724;2022-11-13T00:07:12;16.70;;;11.40;;
39264;SDS011;42646;51.910;7.724;2022-11-13T00:13:12;16.17;;;11.25;;
39264;SDS011;42646;51.910;7.724;2022-11-13T00:16:00;16.58;;;9.98;;
39264;SDS011;42646;51.910;7.724;2022-11-13T00:18:48;15.32;;;10.55;;
39264;SDS011;42646;51.910;7.724;2022-11-13T00:21:34;15.52;;;10.95;;
39264;SDS011;42646;51.910;7.724;2022-11-13T00:24:20;15.27;;;11.10;;
39264;SDS011;42646;51.910;7.724;2022-11-13T00:27:06;15.70;;;10.93;;
39264;SDS011;42646;51.910;7.724;2022-11-13T00:29:53;16.77;;;11.52;;
39264;SDS011;42646;51.910;7.724;2022-11-13T00:32:41;16.50;;;11.27;;
39264;SDS011;42646;51.910;7.724;2022-11-13T00:35:27;17.90;;;11.55;;
39264;SDS011;42646;51.910;7.724;2022-11-13T00:38:15;14.57;;;11.02;;
39264;SDS011;42646;51.910;7.724;2022-11-13T00:41:01;15.82;;;11.23;;
39264;SDS011;42646;51.910;7.724;2022-11-13T00:43:48;16.13;;;11.43;;
39264;SDS011;42646;51.910;7.724;2022-11-13T00:46:35;16.80;;;11.10;;
39264;SDS011;42646;51.910;7.724;2022-11-13T00:49:22;18.85;;;11.82;;
39264;SDS011;42646;51.910;7.724;2022-11-13T00:52:10;17.23;;;11.18;;
39264;SDS011;42646;51.910;7.724;2022-11-13T00:54:56;17.13;;;11.95;;
39264;SDS011;42646;51.910;7.724;2022-11-13T00:57:42;18.65;;;11.68;;
39264;SDS011;42646;51.910;7.724;2022-11-13T01:00:33;15.98;;;10.98;;
39264;SDS011;42646;51.910;7.724;2022-11-13T01:03:19;15.73;;;10.88;;
39264;SDS011;42646;51.910;7.724;2022-11-13T01:06:11;15.75;;;11.07;;
39264;SDS011;42646;51.910;7.724;2022-11-13T01:08:59;15.75;;;10.70;;
39264;SDS011;42646;51.910;7.724;2022-11-13T01:11:45;15.77;;;10.82;;
39264;SDS011;42646;51.910;7.724;2022-11-13T01:14:32;15.55;;;10.93;;
39264;SDS011;42646;51.910;7.724;2022-11-13T01:17:19;16.27;;;11.18;;
39264;SDS011;42646;51.910;7.724;2022-11-13T01:20:06;15.82;;;11.25;;
39264;SDS011;42646;51.910;7.724;2022-11-13T01:22:55;17.60;;;11.95;;
39264;SDS011;42646;51.910;7.724;2022-11-13T01:25:41;14.25;;;10.77;;
39264;SDS011;42646;51.910;7.724;2022-11-13T01:28:28;16.65;;;10.95;;
39264;SDS011;42646;51.910;7.724;2022-11-13T01:31:15;15.20;;;10.43;;
39264;SDS011;42646;51.910;7.724;2022-11-13T01:34:04;16.02;;;10.50;;
39264;SDS011;42646;51.910;7.724;2022-11-13T01:36:51;15.73;;;10.30;;
39264;SDS011;42646;51.910;7.724;2022-11-13T01:39:38;15.65;;;10.07;;
39264;SDS011;42646;51.910;7.724;2022-11-13T01:42:24;15.35;;;10.45;;
39264;SDS011;42646;51.910;7.724;2022-11-13T01:48:41;17.90;;;11.23;;
39264;SDS011;42646;51.910;7.724;2022-11-13T01:51:32;14.88;;;10.82;;
39264;SDS011;42646;51.910;7.724;2022-11-13T01:54:22;15.45;;;10.65;;
39264;SDS011;42646;51.910;7.724;2022-11-13T01:57:14;16.37;;;10.97;;
39264;SDS011;42646;51.910;7.724;2022-11-13T02:00:03;16.23;;;10.25;;
39264;SDS011;42646;51.910;7.724;2022-11-13T02:02:52;15.82;;;10.77;;
39264;SDS011;42646;51.910;7.724;2022-11-13T02:05:38;18.58;;;11.23;;
39264;SDS011;42646;51.910;7.724;2022-11-13T02:08:25;15.55;;;10.30;;
39264;SDS011;42646;51.910;7.724;2022-11-13T02:11:12;15.05;;;10.40;;
39264;SDS011;42646;51.910;7.724;2022-11-13T02:13:59;15.18;;;9.88;;
39264;SDS011;42646;51.910;7.724;2022-11-13T02:16:50;14.93;;;10.45;;
39264;SDS011;42646;51.910;7.724;2022-11-13T02:19:45;13.73;;;10.80;;
39264;SDS011;42646;51.910;7.724;2022-11-13T02:22:37;13.30;;;10.38;;
39264;SDS011;42646;51.910;7.724;2022-11-13T02:25:32;14.25;;;10.13;;
39264;SDS011;42646;51.910;7.724;2022-11-13T02:28:20;14.43;;;10.45;;
39264;SDS011;42646;51.910;7.724;2022-11-13T02:31:07;12.65;;;8.90;;
39264;SDS011;42646;51.910;7.724;2022-11-13T02:33:54;13.98;;;9.63;;
39264;SDS011;42646;51.910;7.724;2022-11-13T02:36:40;13.25;;;8.73;;
39264;SDS011;42646;51.910;7.724;2022-11-13T02:39:27;13.15;;;9.02;;
39264;SDS011;42646;51.910;7.724;2022-11-13T02:42:15;12.35;;;8.48;;
39264;SDS011;42646;51.910;7.724;2022-11-13T02:45:02;13.20;;;9.00;;
39264;SDS011;42646;51.910;7.724;2022-11-13T02:47:48;12.90;;;8.75;;
39264;SDS011;42646;51.910;7.724;2022-11-13T02:50:37;12.35;;;9.00;;
39264;SDS011;42646;51.910;7.724;2022-11-13T02:53:24;13.20;;;9.27;;
39264;SDS011;42646;51.910;7.724;2022-11-13T02:56:10;11.80;;;8.95;;
39264;SDS011;42646;51.910;7.724;2022-11-13T02:58:58;12.43;;;8.90;;
39264;SDS011;42646;51.910;7.724;2022-11-13T03:01:44;13.30;;;9.32;;
39264;SDS011;42646;51.910;7.724;2022-11-13T03:04:31;11.90;;;8.52;;
39264;SDS011;42646;51.910;7.724;2022-11-13T03:07:38;13.55;;;9.00;;
39264;SDS011;42646;51.910;7.724;2022-11-13T03:10:24;14.98;;;8.90;;
39264;SDS011;42646;51.910;7.724;2022-11-13T03:13:10;13.27;;;8.85;;
39264;SDS011;42646;51.910;7.724;2022-11-13T03:16:04;12.98;;;8.98;;
39264;SDS011;42646;51.910;7.724;2022-11-13T03:18:54;11.30;;;8.65;;
39264;SDS011;42646;51.910;7.724;2022-11-13T03:21:42;14.13;;;8.85;;
39264;SDS011;42646;51.910;7.724;2022-11-13T03:24:30;14.45;;;8.75;;
39264;SDS011;42646;51.910;7.724;2022-11-13T03:27:16;12.60;;;8.13;;
39264;SDS011;42646;51.910;7.724;2022-11-13T03:30:03;11.25;;;8.25;;
39264;SDS011;42646;51.910;7.724;2022-11-13T03:32:53;11.95;;;8.90;;
39264;SDS011;42646;51.910;7.724;2022-11-13T03:35:39;12.38;;;8.40;;
39264;SDS011;42646;51.910;7.724;2022-11-13T03:38:32;12.52;;;8.30;;
39264;SDS011;42646;51.910;7.724;2022-11-13T03:41:20;12.05;;;8.13;;
39264;SDS011;42646;51.910;7.724;2022-11-13T03:44:07;11.95;;;8.13;;
39264;SDS011;42646;51.910;7.724;2022-11-13T03:46:53;10.55;;;7.45;;
39264;SDS011;42646;51.910;7.724;2022-11-13T03:50:06;9.95;;;7.03;;
39264;SDS011;42646;51.910;7.724;2022-11-13T03:52:53;10.43;;;7.90;;
39264;SDS011;42646;51.910;7.724;2022-11-13T03:55:41;10.43;;;7.40;;
39264;SDS011;42646;51.910;7.724;2022-11-13T03:58:28;11.32;;;8.25;;
39264;SDS011;42646;51.910;7.724;2022-11-13T04:01:23;10.85;;;7.93;;
39264;SDS011;42646;51.910;7.724;2022-11-13T04:04:10;11.40;;;8.05;;
39264;SDS011;42646;51.910;7.724;2022-11-13T04:06:59;10.48;;;7.70;;
39264;SDS011;42646;51.910;7.724;2022-11-13T04:09:45;10.25;;;7.68;;
39264;SDS011;42646;51.910;7.724;2022-11-13T04:12:31;12.20;;;8.07;;
39264;SDS011;42646;51.910;7.724;2022-11-13T04:15:17;10.10;;;7.30;;
39264;SDS011;42646;51.910;7.724;2022-11-13T04:18:04;11.80;;;7.78;;
39264;SDS011;42646;51.910;7.724;2022-11-13T04:20:57;11.50;;;8.30;;
39264;SDS011;42646;51.910;7.724;2022-11-13T04:23:48;12.07;;;7.82;;
39264;SDS011;42646;51.910;7.724;2022-11-13T04:26:34;9.13;;;7.45;;
39264;SDS011;42646;51.910;7.724;2022-11-13T04:29:24;10.40;;;7.53;;
39264;SDS011;42646;51.910;7.724;2022-11-13T04:32:17;9.77;;;7.22;;
39264;SDS011;42646;51.910;7.724;2022-11-13T04:35:05;9.95;;;7.03;;
39264;SDS011;42646;51.910;7.724;2022-11-13T04:37:53;9.00;;;7.18;;
39264;SDS011;42646;51.910;7.724;2022-11-13T04:40:42;8.25;;;6.50;;
39264;SDS011;42646;51.910;7.724;2022-11-13T04:43:28;10.15;;;7.68;;
39264;SDS011;42646;51.910;7.724;2022-11-13T04:46:13;8.70;;;6.78;;
39264;SDS011;42646;51.910;7.724;2022-11-13T04:48:59;10.40;;;7.50;;
39264;SDS011;42646;51.910;7.724;2022-11-13T04:51:45;9.40;;;7.03;;
39264;SDS011;42646;51.910;7.724;2022-11-13T04:54:32;8.32;;;6.90;;
39264;SDS011;42646;51.910;7.724;2022-11-13T04:57:20;10.00;;;7.25;;
39264;SDS011;42646;51.910;7.724;2022-11-13T05:00:07;9.85;;;7.38;;
39264;SDS011;42646;51.910;7.724;2022-11-13T05:02:55;11.63;;;7.45;;
39264;SDS011;42646;51.910;7.724;2022-11-13T05:05:41;8.30;;;6.40;;
39264;SDS011;42646;51.910;7.724;2022-11-13T05:08:27;7.55;;;5.85;;
39264;SDS011;42646;51.910;7.724;2022-11-13T05:11:14;7.90;;;5.30;;
39264;SDS011;42646;51.910;7.724;2022-11-13T05:14:02;6.10;;;4.93;;
39264;SDS011;42646;51.910;7.724;2022-11-13T05:16:49;6.65;;;5.35;;
39264;SDS011;42646;51.910;7.724;2022-11-13T05:19:38;7.13;;;5.38;;
39264;SDS011;42646;51.910;7.724;2022-11-13T05:22:25;7.25;;;5.88;;
39264;SDS011;42646;51.910;7.724;2022-11-13T05:25:11;9.07;;;6.15;;
39264;SDS011;42646;51.910;7.724;2022-11-13T05:27:57;7.30;;;5.85;;
39264;SDS011;42646;51.910;7.724;2022-11-13T05:30:45;9.10;;;6.60;;
39264;SDS011;42646;51.910;7.724;2022-11-13T05:33:32;8.20;;;6.40;;
39264;SDS011;42646;51.910;7.724;2022-11-13T05:36:19;8.50;;;6.22;;
39264;SDS011;42646;51.910;7.724;2022-11-13T05:39:07;8.32;;;5.82;;
39264;SDS011;42646;51.910;7.724;2022-11-13T05:41:54;9.15;;;6.38;;
39264;SDS011;42646;51.910;7.724;2022-11-13T05:44:40;8.68;;;6.85;;
39264;SDS011;42646;51.910;7.724;2022-11-13T05:47:29;7.97;;;6.28;;
39264;SDS011;42646;51.910;7.724;2022-11-13T05:50:17;8.68;;;6.53;;
39264;SDS011;42646;51.910;7.724;2022-11-13T05:53:05;9.45;;;6.47;;
39264;SDS011;42646;51.910;7.724;2022-11-13T05:55:52;11.68;;;7.50;;
39264;SDS011;42646;51.910;7.724;2022-11-13T05:59:03;8.63;;;6.57;;
39264;SDS011;42646;51.910;7.724;2022-11-13T06:01:50;9.27;;;6.35;;
39264;SDS011;42646;51.910;7.724;2022-11-13T06:04:37;8.77;;;6.45;;
39264;SDS011;42646;51.910;7.724;2022-11-13T06:07:33;8.70;;;6.45;;
39264;SDS011;42646;51.910;7.724;2022-11-13T06:10:21;9.63;;;6.25;;
39264;SDS011;42646;51.910;7.724;2022-11-13T06:13:08;9.07;;;6.85;;
39264;SDS011;42646;51.910;7.724;2022-11-13T06:15:59;9.02;;;6.50;;
39264;SDS011;42646;51.910;7.724;2022-11-13T06:18:46;9.40;;;6.78;;
39264;SDS011;42646;51.910;7.724;2022-11-13T06:21:35;9.32;;;6.90;;
39264;SDS011;42646;51.910;7.724;2022-11-13T06:24:25;9.43;;;6.32;;
39264;SDS011;42646;51.910;7.724;2022-11-13T06:27:18;9.57;;;6.05;;
39264;SDS011;42646;51.910;7.724;2022-11-13T06:30:06;9.18;;;6.63;;
39264;SDS011;42646;51.910;7.724;2022-11-13T06:32:53;10.15;;;6.55;;
39264;SDS011;42646;51.910;7.724;2022-11-13T06:35:39;9.27;;;6.70;;
39264;SDS011;42646;51.910;7.724;2022-11-13T06:38:28;7.47;;;5.93;;
39264;SDS011;42646;51.910;7.724;2022-11-13T06:41:20;8.68;;;6.07;;
39264;SDS011;42646;51.910;7.724;2022-11-13T06:44:07;8.60;;;6.40;;
39264;SDS011;42646;51.910;7.724;2022-11-13T06:46:54;10.55;;;6.75;;
39264;SDS011;42646;51.910;7.724;2022-11-13T06:49:41;8.85;;;6.10;;
39264;SDS011;42646;51.910;7.724;2022-11-13T06:52:30;9.52;;;6.40;;
39264;SDS011;42646;51.910;7.724;2022-11-13T06:55:19;9.77;;;6.78;;
39264;SDS011;42646;51.910;7.724;2022-11-13T06:58:05;9.05;;;6.47;;
39264;SDS011;42646;51.910;7.724;2022-11-13T07:00:52;7.53;;;6.20;;
39264;SDS011;42646;51.910;7.724;2022-11-13T07:03:39;8.20;;;5.97;;
39264;SDS011;42646;51.910;7.724;2022-11-13T07:06:30;8.05;;;6.03;;
39264;SDS011;42646;51.910;7.724;2022-11-13T07:09:24;9.45;;;6.45;;
39264;SDS011;42646;51.910;7.724;2022-11-13T07:15:24;8.60;;;6.45;;
39264;SDS011;42646;51.910;7.724;2022-11-13T07:18:11;9.77;;;6.82;;
39264;SDS011;42646;51.910;7.724;2022-11-13T07:21:01;9.57;;;7.22;;
39264;SDS011;42646;51.910;7.724;2022-11-13T07:23:50;11.13;;;7.72;;
39264;SDS011;42646;51.910;7.724;2022-11-13T07:26:36;14.52;;;11.00;;
39264;SDS011;42646;51.910;7.724;2022-11-13T07:29:25;13.73;;;9.45;;
39264;SDS011;42646;51.910;7.724;2022-11-13T07:32:11;14.98;;;9.82;;
39264;SDS011;42646;51.910;7.724;2022-11-13T07:34:57;13.63;;;9.52;;
39264;SDS011;42646;51.910;7.724;2022-11-13T07:37:46;13.35;;;8.75;;
39264;SDS011;42646;51.910;7.724;2022-11-13T07:40:33;10.57;;;7.47;;
39264;SDS011;42646;51.910;7.724;2022-11-13T07:43:20;10.07;;;7.40;;
39264;SDS011;42646;51.910;7.724;2022-11-13T07:46:09;9.73;;;7.28;;
39264;SDS011;42646;51.910;7.724;2022-11-13T07:48:55;11.30;;;6.95;;
39264;SDS011;42646;51.910;7.724;2022-11-13T07:51:42;10.32;;;7.28;;
39264;SDS011;42646;51.910;7.724;2022-11-13T07:54:28;9.43;;;7.22;;
39264;SDS011;42646;51.910;7.724;2022-11-13T07:57:15;11.38;;;7.18;;
39264;SDS011;42646;51.910;7.724;2022-11-13T08:00:02;9.23;;;7.25;;
39264;SDS011;42646;51.910;7.724;2022-11-13T08:02:50;9.85;;;7.25;;
39264;SDS011;42646;51.910;7.724;2022-11-13T08:05:36;10.88;;;6.80;;
39264;SDS011;42646;51.910;7.724;2022-11-13T08:08:23;8.82;;;6.60;;
39264;SDS011;42646;51.910;7.724;2022-11-13T08:11:10;8.60;;;6.65;;
39264;SDS011;42646;51.910;7.724;2022-11-13T08:13:56;9.27;;;6.63;;
39264;SDS011;42646;51.910;7.724;2022-11-13T08:16:42;8.60;;;7.00;;
39264;SDS011;42646;51.910;7.724;2022-11-13T08:19:30;8.40;;;6.53;;
39264;SDS011;42646;51.910;7.724;2022-11-13T08:22:17;9.52;;;6.72;;
39264;SDS011;42646;51.910;7.724;2022-11-13T08:25:04;9.48;;;6.85;;
39264;SDS011;42646;51.910;7.724;2022-11-13T08:27:51;8.48;;;6.60;;
39264;SDS011;42646;51.910;7.724;2022-11-13T08:31:03;8.43;;;7.25;;
39264;SDS011;42646;51.910;7.724;2022-11-13T08:33:54;10.18;;;7.32;;
39264;SDS011;42646;51.910;7.724;2022-11-13T08:37:07;10.35;;;7.78;;
39264;SDS011;42646;51.910;7.724;2022-11-13T08:39:53;10.93;;;8.63;;
39264;SDS011;42646;51.910;7.724;2022-11-13T08:42:39;11.55;;;8.85;;
39264;SDS011;42646;51.910;7.724;2022-11-13T08:45:26;11.23;;;8.32;;
39264;SDS011;42646;51.910;7.724;2022-11-13T08:48:13;10.68;;;7.70;;
39264;SDS011;42646;51.910;7.724;2022-11-13T08:51:00;10.60;;;7.78;;
39264;SDS011;42646;51.910;7.724;2022-11-13T08:53:48;9.25;;;7.50;;
39264;SDS011;42646;51.910;7.724;2022-11-13T08:56:35;9.73;;;7.47;;
39264;SDS011;42646;51.910;7.724;2022-11-13T08:59:21;8.65;;;6.72;;
39264;SDS011;42646;51.910;7.724;2022-11-13T09:02:08;9.13;;;6.90;;
39264;SDS011;42646;51.910;7.724;2022-11-13T09:04:57;9.45;;;6.55;;
39264;SDS011;42646;51.910;7.724;2022-11-13T09:07:43;8.68;;;6.75;;
39264;SDS011;42646;51.910;7.724;2022-11-13T09:10:31;7.47;;;6.00;;
39264;SDS011;42646;51.910;7.724;2022-11-13T09:13:18;10.73;;;6.35;;
39264;SDS011;42646;51.910;7.724;2022-11-13T09:16:06;9.23;;;6.47;;
39264;SDS011;42646;51.910;7.724;2022-11-13T09:18:52;9.20;;;6.43;;
39264;SDS011;42646;51.910;7.724;2022-11-13T09:21:40;8.40;;;6.35;;
39264;SDS011;42646;51.910;7.724;2022-11-13T09:24:27;9.60;;;6.45;;
39264;SDS011;42646;51.910;7.724;2022-11-13T09:27:15;8.30;;;6.00;;
39264;SDS011;42646;51.910;7.724;2022-11-13T09:30:02;8.23;;;6.25;;
39264;SDS011;42646;51.910;7.724;2022-11-13T09:32:51;8.88;;;5.78;;
39264;SDS011;42646;51.910;7.724;2022-11-13T09:35:38;6.97;;;5.47;;
39264;SDS011;42646;51.910;7.724;2022-11-13T09:38:24;7.88;;;5.75;;
39264;SDS011;42646;51.910;7.724;2022-11-13T09:41:16;7.53;;;5.40;;
39264;SDS011;42646;51.910;7.724;2022-11-13T09:44:10;7.47;;;5.15;;
39264;SDS011;42646;51.910;7.724;2022-11-13T09:47:02;7.20;;;5.15;;
39264;SDS011;42646;51.910;7.724;2022-11-13T09:49:55;6.60;;;4.70;;
39264;SDS011;42646;51.910;7.724;2022-11-13T09:52:45;7.57;;;4.60;;
39264;SDS011;42646;51.910;7.724;2022-11-13T09:55:35;6.07;;;4.30;;
39264;SDS011;42646;51.910;7.724;2022-11-13T09:58:27;6.38;;;4.20;;
39264;SDS011;42646;51.910;7.724;2022-11-13T10:01:35;5.90;;;3.80;;
39264;SDS011;42646;51.910;7.724;2022-11-13T10:07:43;7.72;;;4.05;;
39264;SDS011;42646;51.910;7.724;2022-11-13T10:10:47;6.25;;;4.43;;
39264;SDS011;42646;51.910;7.724;2022-11-13T10:13:42;5.20;;;3.83;;
39264;SDS011;42646;51.910;7.724;2022-11-13T10:16:31;5.75;;;4.18;;
39264;SDS011;42646;51.910;7.724;2022-11-13T10:19:23;5.53;;;3.80;;
39264;SDS011;42646;51.910;7.724;2022-11-13T10:22:17;4.95;;;3.78;;
39264;SDS011;42646;51.910;7.724;2022-11-13T10:25:18;5.43;;;3.75;;
39264;SDS011;42646;51.910;7.724;2022-11-13T10:28:11;5.75;;;3.58;;
39264;SDS011;42646;51.910;7.724;2022-11-13T10:31:19;5.75;;;3.55;;
39264;SDS011;42646;51.910;7.724;2022-11-13T10:34:08;5.65;;;3.70;;
39264;SDS011;42646;51.910;7.724;2022-11-13T10:37:01;5.90;;;3.38;;
39264;SDS011;42646;51.910;7.724;2022-11-13T10:40:00;5.60;;;3.63;;
39264;SDS011;42646;51.910;7.724;2022-11-13T10:42:46;4.63;;;3.30;;
39264;SDS011;42646;51.910;7.724;2022-11-13T10:45:33;5.45;;;3.40;;
39264;SDS011;42646;51.910;7.724;2022-11-13T10:48:22;5.82;;;3.38;;
39264;SDS011;42646;51.910;7.724;2022-11-13T10:51:19;5.00;;;3.33;;
39264;SDS011;42646;51.910;7.724;2022-11-13T10:54:19;5.22;;;3.40;;
39264;SDS011;42646;51.910;7.724;2022-11-13T10:57:16;4.32;;;2.90;;
39264;SDS011;42646;51.910;7.724;2022-11-13T11:03:06;5.05;;;2.90;;
39264;SDS011;42646;51.910;7.724;2022-11-13T11:05:54;5.32;;;3.17;;
39264;SDS011;42646;51.910;7.724;2022-11-13T11:08:44;4.20;;;2.90;;
39264;SDS011;42646;51.910;7.724;2022-11-13T11:11:30;4.32;;;2.78;;
39264;SDS011;42646;51.910;7.724;2022-11-13T11:14:36;3.75;;;2.65;;
39264;SDS011;42646;51.910;7.724;2022-11-13T11:17:28;5.95;;;2.70;;
39264;SDS011;42646;51.910;7.724;2022-11-13T11:20:22;3.95;;;2.63;;
39264;SDS011;42646;51.910;7.724;2022-11-13T11:23:16;4.70;;;2.80;;
39264;SDS011;42646;51.910;7.724;2022-11-13T11:26:11;4.07;;;2.58;;
39264;SDS011;42646;51.910;7.724;2022-11-13T11:29:04;4.55;;;2.70;;
39264;SDS011;42646;51.910;7.724;2022-11-13T11:32:00;4.32;;;2.67;;
39264;SDS011;42646;51.910;7.724;2022-11-13T11:34:55;5.00;;;2.97;;
39264;SDS011;42646;51.910;7.724;2022-11-13T11:37:50;4.40;;;2.65;;
39264;SDS011;42646;51.910;7.724;2022-11-13T11:40:41;5.57;;;2.50;;
39264;SDS011;42646;51.910;7.724;2022-11-13T11:43:33;4.05;;;2.70;;
39264;SDS011;42646;51.910;7.724;2022-11-13T11:46:26;4.07;;;2.60;;
39264;SDS011;42646;51.910;7.724;2022-11-13T11:49:14;4.55;;;2.70;;
39264;SDS011;42646;51.910;7.724;2022-11-13T11:52:04;4.05;;;2.30;;
39264;SDS011;42646;51.910;7.724;2022-11-13T11:55:04;4.30;;;2.30;;
39264;SDS011;42646;51.910;7.724;2022-11-13T11:58:05;4.30;;;2.30;;
39264;SDS011;42646;51.910;7.724;2022-11-13T12:01:12;3.80;;;2.20;;
39264;SDS011;42646;51.910;7.724;2022-11-13T12:04:16;6.13;;;2.88;;
39264;SDS011;42646;51.910;7.724;2022-11-13T12:07:21;4.82;;;2.45;;
39264;SDS011;42646;51.910;7.724;2022-11-13T12:10:21;4.18;;;2.38;;
39264;SDS011;42646;51.910;7.724;2022-11-13T12:13:21;4.40;;;2.33;;
39264;SDS011;42646;51.910;7.724;2022-11-13T12:16:15;3.92;;;2.17;;
39264;SDS011;42646;51.910;7.724;2022-11-13T12:19:12;3.42;;;2.33;;
39264;SDS011;42646;51.910;7.724;2022-11-13T12:22:09;4.68;;;2.70;;
39264;SDS011;42646;51.910;7.724;2022-11-13T12:25:07;4.15;;;2.60;;
39264;SDS011;42646;51.910;7.724;2022-11-13T12:28:01;3.53;;;2.20;;
39264;SDS011;42646;51.910;7.724;2022-11-13T12:31:00;3.53;;;2.25;;
39264;SDS011;42646;51.910;7.724;2022-11-13T12:33:59;5.05;;;3.20;;
39264;SDS011;42646;51.910;7.724;2022-11-13T12:36:52;4.68;;;2.50;;
39264;SDS011;42646;51.910;7.724;2022-11-13T12:39:41;3.45;;;2.15;;
39264;SDS011;42646;51.910;7.724;2022-11-13T12:42:34;3.70;;;2.20;;
39264;SDS011;42646;51.910;7.724;2022-11-13T12:45:43;3.80;;;2.22;;
39264;SDS011;42646;51.910;7.724;2022-11-13T12:48:36;4.03;;;2.17;;
39264;SDS011;42646;51.910;7.724;2022-11-13T12:51:35;3.65;;;2.22;;
39264;SDS011;42646;51.910;7.724;2022-11-13T12:54:24;5.82;;;2.10;;
39264;SDS011;42646;51.910;7.724;2022-11-13T12:57:15;3.88;;;2.20;;
39264;SDS011;42646;51.910;7.724;2022-11-13T13:00:19;3.90;;;2.20;;
39264;SDS011;42646;51.910;7.724;2022-11-13T13:06:27;3.35;;;1.90;;
39264;SDS011;42646;51.910;7.724;2022-11-13T13:09:28;4.80;;;1.95;;
39264;SDS011;42646;51.910;7.724;2022-11-13T13:12:27;3.88;;;1.83;;
39264;SDS011;42646;51.910;7.724;2022-11-13T13:15:26;3.38;;;2.00;;
39264;SDS011;42646;51.910;7.724;2022-11-13T13:18:23;3.33;;;1.90;;
39264;SDS011;42646;51.910;7.724;2022-11-13T13:21:13;3.85;;;2.20;;
39264;SDS011;42646;51.910;7.724;2022-11-13T13:24:07;3.55;;;1.83;;
39264;SDS011;42646;51.910;7.724;2022-11-13T13:27:19;2.83;;;1.73;;
39264;SDS011;42646;51.910;7.724;2022-11-13T13:30:13;4.53;;;2.15;;
39264;SDS011;42646;51.910;7.724;2022-11-13T13:33:04;3.83;;;2.10;;
39264;SDS011;42646;51.910;7.724;2022-11-13T13:36:06;4.07;;;2.30;;
39264;SDS011;42646;51.910;7.724;2022-11-13T13:39:02;4.13;;;2.80;;
39264;SDS011;42646;51.910;7.724;2022-11-13T13:42:08;4.68;;;2.80;;
39264;SDS011;42646;51.910;7.724;2022-11-13T13:45:04;3.65;;;2.13;;
39264;SDS011;42646;51.910;7.724;2022-11-13T13:48:09;4.38;;;2.50;;
39264;SDS011;42646;51.910;7.724;2022-11-13T13:50:58;4.13;;;2.40;;
39264;SDS011;42646;51.910;7.724;2022-11-13T13:53:46;3.63;;;2.20;;
39264;SDS011;42646;51.910;7.724;2022-11-13T13:56:40;4.43;;;2.78;;
39264;SDS011;42646;51.910;7.724;2022-11-13T13:59:28;3.70;;;2.10;;
39264;SDS011;42646;51.910;7.724;2022-11-13T14:02:19;3.63;;;2.20;;
39264;SDS011;42646;51.910;7.724;2022-11-13T14:05:15;3.83;;;2.30;;
39264;SDS011;42646;51.910;7.724;2022-11-13T14:08:15;3.80;;;2.30;;
39264;SDS011;42646;51.910;7.724;2022-11-13T14:11:02;3.97;;;2.42;;
39264;SDS011;42646;51.910;7.724;2022-11-13T14:14:07;4.00;;;2.42;;
39264;SDS011;42646;51.910;7.724;2022-11-13T14:16:55;4.70;;;2.55;;
39264;SDS011;42646;51.910;7.724;2022-11-13T14:19:47;4.22;;;2.35;;
39264;SDS011;42646;51.910;7.724;2022-11-13T14:22:34;4.68;;;2.60;;
39264;SDS011;42646;51.910;7.724;2022-11-13T14:25:21;3.60;;;2.50;;
39264;SDS011;42646;51.910;7.724;2022-11-13T14:28:18;3.80;;;2.55;;
39264;SDS011;42646;51.910;7.724;2022-11-13T14:31:09;3.67;;;2.47;;
39264;SDS011;42646;51.910;7.724;2022-11-13T14:33:59;4.53;;;2.60;;
39264;SDS011;42646;51.910;7.724;2022-11-13T14:36:47;3.90;;;2.50;;
39264;SDS011;42646;51.910;7.724;2022-11-13T14:39:33;5.03;;;2.70;;
39264;SDS011;42646;51.910;7.724;2022-11-13T14:42:21;4.03;;;2.20;;
39264;SDS011;42646;51.910;7.724;2022-11-13T14:45:12;3.50;;;2.22;;
39264;SDS011;42646;51.910;7.724;2022-11-13T14:48:02;4.32;;;2.55;;
39264;SDS011;42646;51.910;7.724;2022-11-13T14:51:05;3.35;;;2.20;;
39264;SDS011;42646;51.910;7.724;2022-11-13T14:53:57;3.45;;;2.17;;
39264;SDS011;42646;51.910;7.724;2022-11-13T14:56:50;4.43;;;2.42;;
39264;SDS011;42646;51.910;7.724;2022-11-13T14:59:37;4.20;;;2.50;;
39264;SDS011;42646;51.910;7.724;2022-11-13T15:02:27;3.35;;;2.17;;
39264;SDS011;42646;51.910;7.724;2022-11-13T15:05:15;3.92;;;2.20;;
39264;SDS011;42646;51.910;7.724;2022-11-13T15:08:02;3.65;;;2.28;;
39264;SDS011;42646;51.910;7.724;2022-11-13T15:10:50;6.10;;;4.60;;
39264;SDS011;42646;51.910;7.724;2022-11-13T15:13:37;4.68;;;3.38;;
39264;SDS011;42646;51.910;7.724;2022-11-13T15:16:26;3.38;;;2.20;;
39264;SDS011;42646;51.910;7.724;2022-11-13T15:19:17;3.45;;;2.20;;
39264;SDS011;42646;51.910;7.724;2022-11-13T15:22:11;3.50;;;1.80;;
39264;SDS011;42646;51.910;7.724;2022-11-13T15:25:12;4.25;;;2.28;;
39264;SDS011;42646;51.910;7.724;2022-11-13T15:27:59;3.58;;;1.50;;
39264;SDS011;42646;51.910;7.724;2022-11-13T15:31:14;2.70;;;1.60;;
39264;SDS011;42646;51.910;7.724;2022-11-13T15:34:04;3.20;;;2.10;;
39264;SDS011;42646;51.910;7.724;2022-11-13T15:36:50;3.40;;;2.00;;
39264;SDS011;42646;51.910;7.724;2022-11-13T15:39:38;3.72;;;2.45;;
39264;SDS011;42646;51.910;7.724;2022-11-13T15:42:25;3.60;;;2.40;;
39264;SDS011;42646;51.910;7.724;2022-11-13T15:45:14;3.22;;;2.10;;
39264;SDS011;42646;51.910;7.724;2022-11-13T15:48:01;3.40;;;1.90;;
39264;SDS011;42646;51.910;7.724;2022-11-13T15:50:47;4.07;;;2.15;;
39264;SDS011;42646;51.910;7.724;2022-11-13T15:53:33;3.78;;;1.90;;
39264;SDS011;42646;51.910;7.724;2022-11-13T15:56:23;3.45;;;1.98;;
39264;SDS011;42646;51.910;7.724;2022-11-13T15:59:11;4.20;;;2.42;;
39264;SDS011;42646;51.910;7.724;2022-11-13T16:01:58;3.75;;;2.13;;
39264;SDS011;42646;51.910;7.724;2022-11-13T16:04:44;4.25;;;2.10;;
39264;SDS011;42646;51.910;7.724;2022-11-13T16:07:41;4.05;;;2.50;;
39264;SDS011;42646;51.910;7.724;2022-11-13T16:10:28;3.53;;;2.22;;
39264;SDS011;42646;51.910;7.724;2022-11-13T16:13:17;3.97;;;2.28;;
39264;SDS011;42646;51.910;7.724;2022-11-13T16:16:04;4.13;;;1.90;;
39264;SDS011;42646;51.910;7.724;2022-11-13T16:18:51;4.70;;;2.40;;
39264;SDS011;42646;51.910;7.724;2022-11-13T16:21:44;4.05;;;2.10;;
39264;SDS011;42646;51.910;7.724;2022-11-13T16:24:30;3.78;;;2.25;;
39264;SDS011;42646;51.910;7.724;2022-11-13T16:27:19;4.00;;;2.50;;
39264;SDS011;42646;51.910;7.724;2022-11-13T16:30:15;4.57;;;2.55;;
39264;SDS011;42646;51.910;7.724;2022-11-13T16:33:05;5.07;;;3.17;;
39264;SDS011;42646;51.910;7.724;2022-11-13T16:35:52;8.52;;;5.10;;
39264;SDS011;42646;51.910;7.724;2022-11-13T16:38:39;7.18;;;4.18;;
39264;SDS011;42646;51.910;7.724;2022-11-13T16:41:26;6.55;;;3.78;;
39264;SDS011;42646;51.910;7.724;2022-11-13T16:44:12;5.95;;;3.80;;
39264;SDS011;42646;51.910;7.724;2022-11-13T16:47:02;6.63;;;3.92;;
39264;SDS011;42646;51.910;7.724;2022-11-13T16:49:49;6.10;;;3.33;;
39264;SDS011;42646;51.910;7.724;2022-11-13T16:52:36;6.00;;;3.22;;
39264;SDS011;42646;51.910;7.724;2022-11-13T16:55:22;7.20;;;3.92;;
39264;SDS011;42646;51.910;7.724;2022-11-13T16:58:12;7.05;;;4.40;;
39264;SDS011;42646;51.910;7.724;2022-11-13T17:00:59;7.75;;;4.70;;
39264;SDS011;42646;51.910;7.724;2022-11-13T17:03:48;6.60;;;4.93;;
39264;SDS011;42646;51.910;7.724;2022-11-13T17:06:34;7.18;;;4.57;;
39264;SDS011;42646;51.910;7.724;2022-11-13T17:09:21;6.60;;;4.55;;
39264;SDS011;42646;51.910;7.724;2022-11-13T17:12:07;5.68;;;3.92;;
39264;SDS011;42646;51.910;7.724;2022-11-13T17:14:54;5.35;;;3.85;;
39264;SDS011;42646;51.910;7.724;2022-11-13T17:17:43;6.03;;;4.15;;